Time;durP1;ratioP1;P1;durP2;ratioP2;P2;SDS_P1;SDS_P2;PMS_P1;PMS_P2;Temp;Humidity;BMP_temperature;BMP_pressure;BME280_temperature;BME280_humidity;BME280_pressure;Samples;Min_cycle;Max_cycle;Signal;HPM_P1;HPM_P2
2022/05/16 00:01:38;;;;;;;20.83;9.05;;;13.00;99.90;;;;;;4949870;29;20497;-92
2022/05/16 00:04:04;;;;;;;26.45;9.45;;;13.00;99.90;;;;;;4944161;29;20031;-93
2022/05/16 00:06:30;;;;;;;26.38;8.18;;;13.00;99.90;;;;;;4950860;29;20023;-91
2022/05/16 00:08:57;;;;;;;29.33;10.23;;;13.00;99.90;;;;;;4951639;29;20075;-93
2022/05/16 00:11:22;;;;;;;34.10;10.75;;;13.00;99.90;;;;;;4954885;29;20099;-92
2022/05/16 00:13:48;;;;;;;23.38;9.30;;;13.00;99.90;;;;;;4969804;29;20031;-94
2022/05/16 00:16:17;;;;;;;28.15;10.10;;;13.00;99.90;;;;;;4968866;29;20043;-94
2022/05/16 00:18:43;;;;;;;24.38;10.00;;;13.00;99.90;;;;;;4950993;29;20111;-94
2022/05/16 00:21:10;;;;;;;30.27;10.68;;;13.00;99.90;;;;;;4952970;29;20421;-94
2022/05/16 00:23:36;;;;;;;30.45;10.70;;;12.90;99.90;;;;;;4948672;29;20457;-93
2022/05/16 00:26:02;;;;;;;33.30;10.93;;;12.90;99.90;;;;;;4949593;29;20038;-93
2022/05/16 00:28:30;;;;;;;28.48;10.73;;;12.90;99.90;;;;;;4953352;28;20049;-94
2022/05/16 00:31:04;;;;;;;34.05;11.15;;;12.80;99.90;;;;;;4940394;28;20045;-94
2022/05/16 00:33:31;;;;;;;28.50;11.48;;;12.80;99.90;;;;;;4969099;28;20031;-94
2022/05/16 00:36:14;;;;;;;28.15;10.50;;;12.70;99.90;;;;;;4974119;28;20094;-94
2022/05/16 00:38:40;;;;;;;38.58;10.85;;;12.70;99.90;;;;;;4980016;28;20039;-93
2022/05/16 00:41:06;;;;;;;36.28;10.98;;;12.60;99.90;;;;;;4957936;28;20095;-96
2022/05/16 00:43:55;;;;;;;27.55;10.55;;;12.60;99.90;;;;;;4974707;28;20054;-95
2022/05/16 00:46:36;;;;;;;26.38;10.38;;;12.50;99.90;;;;;;4972750;28;20038;-93
2022/05/16 00:49:03;;;;;;;;;;;12.50;99.90;;;;;;4990367;28;20521;-95
2022/05/16 00:51:41;;;;;;;30.60;8.82;;;12.50;99.90;;;;;;4961182;28;19910;-92
2022/05/16 00:54:44;;;;;;;24.38;9.40;;;12.50;99.90;;;;;;4959427;28;20034;-92
2022/05/16 00:57:15;;;;;;;31.05;9.35;;;12.50;99.90;;;;;;4906518;28;20046;-92
2022/05/16 00:59:59;;;;;;;26.33;8.93;;;12.50;99.90;;;;;;4981074;28;20027;-93
2022/05/16 01:05:11;;;;;;;19.55;7.07;;;12.50;99.90;;;;;;4969808;28;20046;-94
2022/05/16 01:07:42;;;;;;;21.10;7.90;;;12.50;99.90;;;;;;4964429;28;20465;-92
2022/05/16 01:10:11;;;;;;;19.05;7.07;;;12.40;99.90;;;;;;4984904;28;20031;-92
2022/05/16 01:12:41;;;;;;;18.83;6.93;;;12.40;99.90;;;;;;4970174;28;20050;-94
2022/05/16 01:15:34;;;;;;;18.50;7.15;;;12.40;99.90;;;;;;4985435;28;20042;-92
2022/05/16 01:18:00;;;;;;;19.02;7.18;;;12.40;99.90;;;;;;4978718;28;20035;-93
2022/05/16 01:21:00;;;;;;;20.80;6.75;;;12.30;99.90;;;;;;4961118;28;20352;-93
2022/05/16 01:23:30;;;;;;;16.05;7.40;;;12.30;99.90;;;;;;4962240;28;20049;-91
2022/05/16 01:25:58;;;;;;;24.47;8.33;;;12.30;99.90;;;;;;4964732;28;20045;-95
2022/05/16 01:28:24;;;;;;;25.80;9.18;;;12.20;99.90;;;;;;4959275;28;20070;-91
2022/05/16 01:30:54;;;;;;;21.95;9.05;;;12.20;99.90;;;;;;4958980;28;20031;-91
2022/05/16 01:33:22;;;;;;;25.98;9.68;;;12.20;99.90;;;;;;4960084;28;20388;-94
2022/05/16 01:35:48;;;;;;;21.08;8.50;;;12.20;99.90;;;;;;4963797;28;20050;-94
2022/05/16 01:38:19;;;;;;;17.58;7.80;;;12.10;99.90;;;;;;4963237;28;20043;-94
2022/05/16 01:40:49;;;;;;;20.90;9.40;;;12.00;99.90;;;;;;4983229;28;20026;-94
2022/05/16 01:43:16;;;;;;;20.52;8.50;;;12.00;99.90;;;;;;4963154;28;20045;-92
2022/05/16 01:45:44;;;;;;;21.70;9.80;;;12.00;99.90;;;;;;4964936;28;20023;-92
2022/05/16 01:48:11;;;;;;;18.75;9.25;;;12.00;99.90;;;;;;4966614;28;20038;-93
2022/05/16 01:50:39;;;;;;;16.85;9.82;;;12.00;99.90;;;;;;4966930;28;20033;-94
2022/05/16 01:53:05;;;;;;;20.48;10.00;;;12.00;99.90;;;;;;4966830;28;20030;-95
2022/05/16 01:55:30;;;;;;;25.15;11.18;;;12.00;99.90;;;;;;4960971;28;20534;-91
2022/05/16 01:57:56;;;;;;;23.50;12.25;;;12.00;99.90;;;;;;4958761;28;20035;-91
2022/05/16 02:00:22;;;;;;;20.25;10.48;;;12.00;99.90;;;;;;4963556;28;20054;-91
2022/05/16 02:02:48;;;;;;;27.02;12.05;;;12.00;99.90;;;;;;4959016;28;20033;-90
2022/05/16 02:05:17;;;;;;;18.75;10.63;;;11.90;99.90;;;;;;4958737;28;20078;-91
2022/05/16 02:07:43;;;;;;;22.67;9.00;;;12.00;99.90;;;;;;4958235;28;20074;-90
2022/05/16 02:10:10;;;;;;;21.75;8.98;;;11.90;99.90;;;;;;4959130;28;20023;-90
2022/05/16 02:12:36;;;;;;;17.38;8.10;;;12.00;99.90;;;;;;4960176;28;20480;-91
2022/05/16 02:15:05;;;;;;;16.83;8.10;;;11.90;99.90;;;;;;4958690;28;20101;-92
2022/05/16 02:17:31;;;;;;;20.20;8.00;;;11.90;99.90;;;;;;4957534;28;20607;-93
2022/05/16 02:19:58;;;;;;;18.52;8.95;;;11.90;99.90;;;;;;4961993;28;20044;-96
2022/05/16 02:25:12;;;;;;;23.70;9.88;;;11.90;99.90;;;;;;4986844;28;20070;-94
2022/05/16 02:27:38;;;;;;;19.88;10.20;;;11.90;99.90;;;;;;4981443;28;20022;-94
2022/05/16 02:30:06;;;;;;;21.98;10.00;;;11.90;99.90;;;;;;4961147;28;20046;-92
2022/05/16 02:32:31;;;;;;;18.55;10.50;;;11.90;99.90;;;;;;4944194;28;20042;-93
2022/05/16 02:34:57;;;;;;;23.92;10.43;;;11.90;99.90;;;;;;4963877;28;20031;-92
2022/05/16 02:37:23;;;;;;;19.85;8.45;;;11.80;99.90;;;;;;4961807;28;20440;-93
2022/05/16 02:39:49;;;;;;;21.83;9.77;;;11.90;99.90;;;;;;4963419;28;20027;-92
2022/05/16 02:42:15;;;;;;;16.35;9.07;;;11.80;99.90;;;;;;4959441;28;20102;-91
2022/05/16 02:44:44;;;;;;;17.23;10.23;;;11.80;99.90;;;;;;4957845;28;20031;-92
2022/05/16 02:47:15;;;;;;;20.73;9.77;;;11.80;99.90;;;;;;4958944;28;20023;-93
2022/05/16 02:49:41;;;;;;;12.52;8.57;;;11.80;99.90;;;;;;4959905;28;20023;-92
2022/05/16 02:52:07;;;;;;;21.25;9.77;;;11.80;99.90;;;;;;4958464;28;20121;-94
2022/05/16 02:54:33;;;;;;;18.10;8.63;;;11.80;99.90;;;;;;4958811;28;20117;-90
2022/05/16 02:57:00;;;;;;;17.67;8.50;;;11.80;99.90;;;;;;4967113;28;20062;-93
2022/05/16 02:59:32;;;;;;;12.45;7.07;;;11.80;99.90;;;;;;4972632;28;20054;-93
2022/05/16 03:01:59;;;;;;;8.02;5.93;;;11.80;99.90;;;;;;4967209;28;20046;-94
2022/05/16 03:04:24;;;;;;;11.55;6.43;;;11.70;99.90;;;;;;4964391;28;20037;-91
2022/05/16 03:06:50;;;;;;;11.15;5.60;;;11.70;99.90;;;;;;4961609;28;20027;-92
2022/05/16 03:09:17;;;;;;;8.27;4.90;;;11.70;99.90;;;;;;4959886;28;20027;-92
2022/05/16 03:11:44;;;;;;;8.70;5.55;;;11.80;99.90;;;;;;4961312;28;20034;-93
2022/05/16 03:14:11;;;;;;;11.32;5.40;;;11.80;99.90;;;;;;4966600;28;20023;-94
2022/05/16 03:16:38;;;;;;;13.20;6.32;;;11.80;99.90;;;;;;4958806;28;20034;-94
2022/05/16 03:19:04;;;;;;;10.18;5.97;;;11.80;99.90;;;;;;4958074;28;20495;-93
2022/05/16 03:21:30;;;;;;;7.97;5.32;;;11.80;99.90;;;;;;4958856;28;20031;-94
2022/05/16 03:23:57;;;;;;;7.20;4.93;;;11.90;99.90;;;;;;4959628;28;20031;-95
2022/05/16 03:26:23;;;;;;;7.18;4.72;;;11.90;99.90;;;;;;4958884;28;20082;-95
2022/05/16 03:28:49;;;;;;;5.07;2.72;;;12.00;99.90;;;;;;4956478;29;20051;-94
2022/05/16 03:31:15;;;;;;;2.80;1.85;;;12.00;99.90;;;;;;4955530;29;20051;-94
2022/05/16 03:33:40;;;;;;;6.05;2.30;;;11.90;99.90;;;;;;4955737;29;20067;-95
2022/05/16 03:36:07;;;;;;;4.18;2.00;;;12.00;99.90;;;;;;4962686;29;20030;-94
2022/05/16 03:41:16;;;;;;;3.05;2.00;;;12.00;99.90;;;;;;4957064;29;20461;-93
2022/05/16 03:43:43;;;;;;;3.08;2.10;;;12.00;99.90;;;;;;4956465;29;20054;-94
2022/05/16 03:46:09;;;;;;;2.30;1.60;;;12.00;99.90;;;;;;4960892;29;20165;-93
2022/05/16 03:48:36;;;;;;;2.65;1.27;;;12.00;99.90;;;;;;4959217;29;20107;-93
2022/05/16 03:51:05;;;;;;;3.80;1.52;;;12.00;99.90;;;;;;4960829;29;20035;-94
2022/05/16 03:53:31;;;;;;;3.08;1.25;;;12.10;99.90;;;;;;4961297;29;20031;-91
2022/05/16 03:55:58;;;;;;;1.95;1.40;;;12.10;99.90;;;;;;4963564;29;20031;-94
2022/05/16 03:58:24;;;;;;;2.00;1.23;;;12.10;99.90;;;;;;4957535;29;20377;-94
2022/05/16 04:00:50;;;;;;;1.88;1.58;;;12.10;99.90;;;;;;4964260;29;20037;-93
2022/05/16 04:03:16;;;;;;;2.60;1.40;;;12.10;99.90;;;;;;4958222;29;20043;-93
2022/05/16 04:05:41;;;;;;;0.88;0.77;;;12.10;99.90;;;;;;4942205;29;20024;-93
2022/05/16 04:08:07;;;;;;;0.95;0.93;;;12.10;99.90;;;;;;4962616;29;20098;-93
2022/05/16 04:10:34;;;;;;;1.48;1.00;;;12.10;99.90;;;;;;4963011;29;20038;-92
2022/05/16 04:12:59;;;;;;;1.00;0.90;;;12.00;99.90;;;;;;4964096;29;20118;-93
2022/05/16 04:15:26;;;;;;;1.80;1.10;;;12.00;99.90;;;;;;4961287;29;20078;-93
2022/05/16 04:17:51;;;;;;;2.45;1.20;;;12.00;99.90;;;;;;4967208;29;20035;-92
2022/05/16 04:20:19;;;;;;;1.70;1.20;;;12.10;99.90;;;;;;4969936;29;20046;-93
2022/05/16 04:22:45;;;;;;;1.75;1.65;;;12.10;99.90;;;;;;4969153;29;20031;-91
2022/05/16 04:25:14;;;;;;;2.03;1.80;;;12.10;99.90;;;;;;4965233;29;20023;-92
2022/05/16 04:27:40;;;;;;;4.47;2.97;;;12.10;99.90;;;;;;4958476;28;20027;-93
2022/05/16 04:30:07;;;;;;;3.95;3.55;;;12.10;99.90;;;;;;4960822;28;20039;-92
2022/05/16 04:32:33;;;;;;;4.82;3.55;;;12.10;99.90;;;;;;4960601;28;20029;-91
2022/05/16 04:34:59;;;;;;;7.03;3.80;;;12.10;99.90;;;;;;4959904;28;20038;-91
2022/05/16 04:37:25;;;;;;;7.88;4.75;;;12.10;99.90;;;;;;4959827;28;20049;-91
2022/05/16 04:39:51;;;;;;;4.25;3.15;;;12.10;99.90;;;;;;4960099;28;20054;-92
2022/05/16 04:45:01;;;;;;;6.60;3.90;;;12.10;99.90;;;;;;4977550;28;20097;-92
2022/05/16 04:47:27;;;;;;;6.93;4.38;;;12.20;99.90;;;;;;4960167;28;20022;-91
2022/05/16 04:49:53;;;;;;;8.05;5.80;;;12.20;99.90;;;;;;4959782;28;20029;-91
2022/05/16 04:52:19;;;;;;;6.93;4.63;;;12.20;99.90;;;;;;4960166;28;20493;-91
2022/05/16 04:54:48;;;;;;;7.05;5.30;;;12.20;99.90;;;;;;4960085;28;20029;-90
2022/05/16 04:57:14;;;;;;;6.70;5.05;;;12.20;99.90;;;;;;4959837;28;20537;-91
2022/05/16 04:59:40;;;;;;;8.57;4.90;;;12.20;99.90;;;;;;4959753;28;20417;-90
2022/05/16 05:02:05;;;;;;;9.52;4.82;;;12.20;99.90;;;;;;4959451;28;20035;-90
2022/05/16 05:04:31;;;;;;;6.05;3.67;;;12.20;99.90;;;;;;4960126;28;20061;-91
2022/05/16 05:06:57;;;;;;;6.22;4.63;;;12.20;99.90;;;;;;4960250;28;20034;-91
2022/05/16 05:14:31;;;;;;;14.27;7.60;;;12.30;99.90;;;;;;4959803;28;20031;-89
2022/05/16 05:15:02;;;;;;;13.30;7.35;;;12.30;99.90;;;;;;4977190;28;20546;-90
2022/05/16 05:17:27;;;;;;;16.13;7.35;;;12.30;99.90;;;;;;4958856;28;20022;-91
2022/05/16 05:19:53;;;;;;;23.13;9.77;;;12.30;99.90;;;;;;4943661;28;20066;-90
2022/05/16 05:22:19;;;;;;;18.73;9.77;;;12.30;99.90;;;;;;4959243;28;20077;-90
2022/05/16 05:24:44;;;;;;;21.45;9.57;;;12.20;99.90;;;;;;4960061;28;20125;-90
2022/05/16 05:27:11;;;;;;;23.17;11.70;;;12.30;99.90;;;;;;4962445;28;20031;-89
2022/05/16 05:29:36;;;;;;;19.45;9.80;;;12.30;99.90;;;;;;4977409;28;20051;-91
2022/05/16 05:32:03;;;;;;;23.90;11.02;;;12.30;99.90;;;;;;4959937;28;20054;-90
2022/05/16 05:34:29;;;;;;;20.42;11.20;;;12.30;99.90;;;;;;4963255;28;20023;-92
2022/05/16 05:36:54;;;;;;;15.70;9.77;;;12.30;99.90;;;;;;4965651;28;20058;-90
2022/05/16 05:39:20;;;;;;;23.63;9.75;;;12.30;99.90;;;;;;4960068;28;20484;-91
2022/05/16 05:41:46;;;;;;;18.13;9.85;;;12.30;99.90;;;;;;4960495;28;20035;-90
2022/05/16 05:44:12;;;;;;;17.42;9.25;;;12.30;99.90;;;;;;4984865;28;20019;-90
2022/05/16 05:46:39;;;;;;;20.00;8.60;;;12.30;99.90;;;;;;4967609;28;20038;-91
2022/05/16 05:49:06;;;;;;;13.13;7.95;;;12.40;99.90;;;;;;4966629;28;20072;-90
2022/05/16 05:51:33;;;;;;;16.92;8.45;;;12.40;99.90;;;;;;4965173;28;20031;-90
2022/05/16 05:53:59;;;;;;;16.27;8.45;;;12.40;99.90;;;;;;4960522;28;20432;-90
2022/05/16 05:56:24;;;;;;;16.67;9.38;;;12.40;99.90;;;;;;4960320;28;20050;-91
2022/05/16 05:58:50;;;;;;;16.17;9.52;;;12.40;99.90;;;;;;4959778;28;20038;-89
2022/05/16 06:01:16;;;;;;;15.63;9.98;;;12.40;99.90;;;;;;4959956;28;20023;-92
2022/05/16 06:03:42;;;;;;;18.48;9.30;;;12.50;99.90;;;;;;4959565;28;20551;-90
2022/05/16 06:06:07;;;;;;;17.85;10.48;;;12.50;99.90;;;;;;4957645;28;20027;-90
2022/05/16 06:08:33;;;;;;;19.90;10.75;;;12.50;99.90;;;;;;4957377;28;20026;-89
2022/05/16 06:11:00;;;;;;;15.65;10.20;;;12.50;99.90;;;;;;4956479;28;20093;-89
2022/05/16 06:13:28;;;;;;;20.17;10.65;;;12.50;99.90;;;;;;4948334;28;20015;-91
2022/05/16 06:15:54;;;;;;;21.70;11.25;;;12.50;99.90;;;;;;4957591;28;20122;-90
2022/05/16 06:18:20;;;;;;;21.20;11.68;;;12.60;99.90;;;;;;4949718;28;20121;-89
2022/05/16 06:20:45;;;;;;;17.33;10.32;;;12.60;99.90;;;;;;4957513;28;20113;-89
2022/05/16 06:23:11;;;;;;;22.48;11.07;;;12.60;99.90;;;;;;4957619;28;20117;-90
2022/05/16 06:25:42;;;;;;;17.83;10.00;;;12.60;99.90;;;;;;4957296;28;20053;-89
2022/05/16 06:28:24;;;;;;;25.35;11.63;;;12.60;99.90;;;;;;4950256;28;20039;-93
2022/05/16 06:30:51;;;;;;;24.38;12.20;;;12.60;99.90;;;;;;4961918;28;20085;-90
2022/05/16 06:33:19;;;;;;;24.02;12.30;;;12.60;99.90;;;;;;4957025;28;20166;-89
2022/05/16 06:35:45;;;;;;;22.30;12.82;;;12.60;99.90;;;;;;4961989;28;20027;-89
2022/05/16 06:38:19;;;;;;;26.45;13.20;;;12.60;99.90;;;;;;4949882;28;20134;-90
2022/05/16 06:40:47;;;;;;;26.80;13.70;;;12.70;99.90;;;;;;4954962;28;20075;-90
2022/05/16 06:43:15;;;;;;;26.08;13.85;;;12.70;99.90;;;;;;4955977;28;20025;-90
2022/05/16 06:45:41;;;;;;;26.90;14.13;;;12.80;99.90;;;;;;4957523;28;20499;-91
2022/05/16 06:48:07;;;;;;;25.45;14.57;;;12.80;99.90;;;;;;4954622;28;20031;-90
2022/05/16 06:50:34;;;;;;;30.20;14.25;;;12.90;99.90;;;;;;4950153;28;20027;-91
2022/05/16 06:53:02;;;;;;;25.08;13.65;;;12.90;99.90;;;;;;4958620;28;20041;-91
2022/05/16 06:55:28;;;;;;;25.17;14.93;;;12.90;99.90;;;;;;4958747;28;20023;-90
2022/05/16 06:57:53;;;;;;;24.23;10.73;;;12.90;99.90;;;;;;4958381;28;20039;-90
2022/05/16 07:00:19;;;;;;;25.42;13.60;;;13.00;99.90;;;;;;4958087;28;20023;-92
2022/05/16 07:02:46;;;;;;;25.00;13.02;;;13.00;99.90;;;;;;4958667;28;20542;-91
2022/05/16 08:19:21;;;;;;;28.65;15.05;;;13.50;99.90;;;;;;5104264;27;20483;-93
2022/05/16 08:21:48;;;;;;;32.55;15.38;;;13.50;99.90;;;;;;5112075;28;20099;-92
2022/05/16 08:24:15;;;;;;;24.77;11.55;;;13.60;99.90;;;;;;5113064;28;20107;-92
2022/05/16 08:26:41;;;;;;;33.55;16.95;;;13.60;99.90;;;;;;5115056;28;20028;-93
2022/05/16 08:29:08;;;;;;;34.15;17.10;;;13.60;99.90;;;;;;5117781;28;20054;-94
2022/05/16 08:31:37;;;;;;;31.27;16.42;;;13.70;99.90;;;;;;5122493;28;20065;-93
2022/05/16 08:34:03;;;;;;;28.17;13.23;;;13.70;99.90;;;;;;5125282;28;20018;-93
2022/05/16 08:42:02;;;;;;;30.13;13.20;;;13.80;99.90;;;;;;5119014;28;20073;-93
2022/05/16 08:44:39;;;;;;;25.63;14.27;;;13.90;99.90;;;;;;5112929;28;20270;-94
2022/05/16 08:47:14;;;;;;;34.28;15.68;;;13.90;99.90;;;;;;5112309;28;20031;-93
2022/05/16 08:49:44;;;;;;;29.38;15.85;;;13.90;99.90;;;;;;5100771;28;20127;-92
2022/05/16 08:52:51;;;;;;;35.67;16.50;;;13.90;99.90;;;;;;5102678;28;20073;-92
2022/05/16 08:55:32;;;;;;;36.45;16.85;;;13.90;99.90;;;;;;5101170;28;20040;-92
2022/05/16 08:58:14;;;;;;;34.83;16.50;;;13.90;99.90;;;;;;5104096;28;20028;-92
2022/05/16 09:00:48;;;;;;;32.30;16.23;;;13.90;99.90;;;;;;5108035;28;20030;-92
2022/05/16 09:03:26;;;;;;;35.17;15.65;;;13.90;99.90;;;;;;5103437;28;20115;-91
2022/05/16 09:06:12;;;;;;;34.38;17.23;;;13.90;99.90;;;;;;5107716;28;20547;-91
2022/05/16 09:08:56;;;;;;;35.75;16.05;;;13.90;99.90;;;;;;5103140;28;20029;-93
2022/05/16 09:11:47;;;;;;;36.90;16.55;;;13.90;99.90;;;;;;5098637;28;20028;-90
2022/05/16 09:14:27;;;;;;;31.92;16.63;;;14.00;99.90;;;;;;5101212;28;20044;-92
2022/05/16 09:17:00;;;;;;;38.08;18.15;;;14.10;99.90;;;;;;5100409;28;20024;-90
2022/05/16 09:19:52;;;;;;;36.20;17.35;;;14.00;99.90;;;;;;5094159;28;20036;-90
2022/05/16 09:22:41;;;;;;;29.58;16.20;;;14.10;99.90;;;;;;5100214;28;20040;-90
2022/05/16 09:25:13;;;;;;;31.55;16.98;;;14.10;99.90;;;;;;5100771;28;20452;-90
2022/05/16 09:30:27;;;;;;;32.42;17.08;;;14.00;99.90;;;;;;5090919;28;20179;-89
2022/05/16 09:33:11;;;;;;;38.83;18.30;;;14.10;99.90;;;;;;5094156;28;20058;-89
2022/05/16 09:35:42;;;;;;;36.95;18.80;;;14.10;99.90;;;;;;5095214;28;20036;-89
2022/05/16 09:38:08;;;;;;;39.45;19.45;;;14.10;99.90;;;;;;5088144;28;20039;-90
2022/05/16 09:40:53;;;;;;;40.15;17.80;;;14.10;99.90;;;;;;5075606;28;20385;-90
2022/05/16 09:43:23;;;;;;;34.58;18.02;;;14.10;99.90;;;;;;5075740;28;20054;-89
2022/05/16 09:46:20;;;;;;;41.80;20.00;;;14.10;99.90;;;;;;5074462;28;20020;-90
2022/05/16 09:48:46;;;;;;;40.47;19.27;;;14.20;99.90;;;;;;5095122;28;20061;-88
2022/05/16 09:51:12;;;;;;;38.25;19.73;;;14.20;99.90;;;;;;5094666;28;20020;-89
2022/05/16 09:53:43;;;;;;;39.65;20.45;;;14.20;99.90;;;;;;5095649;28;20111;-89
2022/05/16 09:56:30;;;;;;;43.08;18.83;;;14.20;99.90;;;;;;5095170;28;20454;-91
2022/05/16 09:59:01;;;;;;;38.75;20.17;;;14.20;99.90;;;;;;5093966;28;20036;-91
2022/05/16 10:01:48;;;;;;;43.15;20.60;;;14.20;99.90;;;;;;5096041;28;20028;-90
2022/05/16 10:04:17;;;;;;;40.33;20.60;;;14.20;99.90;;;;;;5094086;28;20166;-91
2022/05/16 10:06:57;;;;;;;44.17;22.90;;;14.20;99.90;;;;;;5095302;28;20031;-91
2022/05/16 10:09:33;;;;;;;45.17;21.13;;;14.20;99.90;;;;;;5094991;28;20571;-90
2022/05/16 10:12:00;;;;;;;39.65;20.48;;;14.20;99.90;;;;;;5094372;28;20024;-88
2022/05/16 10:14:26;;;;;;;37.85;19.70;;;14.20;99.90;;;;;;5095279;28;20032;-91
2022/05/16 10:16:53;;;;;;;38.28;18.45;;;14.30;99.90;;;;;;5088831;28;20211;-90
2022/05/16 10:19:24;;;;;;;35.83;19.67;;;14.30;99.90;;;;;;5075335;28;20032;-91
2022/05/16 10:21:51;;;;;;;35.63;16.60;;;14.30;99.90;;;;;;5075335;28;20096;-90
2022/05/16 10:24:18;;;;;;;33.30;16.23;;;14.40;99.90;;;;;;5074150;28;20043;-90
2022/05/16 10:26:48;;;;;;;27.70;14.80;;;14.40;99.90;;;;;;5074464;28;20115;-90
2022/05/16 10:29:25;;;;;;;27.35;15.85;;;14.40;99.90;;;;;;5073943;28;20036;-92
2022/05/16 10:34:49;;;;;;;35.65;19.58;;;14.50;99.90;;;;;;5074948;28;20433;-89
2022/05/16 10:37:16;;;;;;;36.47;19.45;;;14.60;99.90;;;;;;5079946;28;20115;-91
2022/05/16 10:39:48;;;;;;;35.53;19.85;;;14.60;99.90;;;;;;5093931;28;20096;-89
2022/05/16 10:42:45;;;;;;;41.60;21.02;;;14.60;99.90;;;;;;5089351;28;20028;-89
2022/05/16 10:45:17;;;;;;;40.42;20.83;;;14.60;99.90;;;;;;5055943;28;20063;-90
2022/05/16 10:48:01;;;;;;;33.80;16.45;;;14.60;99.90;;;;;;5075519;28;20474;-89
2022/05/16 10:50:47;;;;;;;34.75;18.23;;;14.60;99.90;;;;;;5075896;28;20123;-90
2022/05/16 10:53:23;;;;;;;45.13;22.00;;;14.60;99.90;;;;;;5099354;28;20035;-91
2022/05/16 10:56:31;;;;;;;41.88;19.70;;;14.60;99.90;;;;;;5095118;28;20024;-91
2022/05/16 10:59:03;;;;;;;40.35;20.13;;;14.60;99.90;;;;;;5075871;28;20029;-91
2022/05/16 11:01:40;;;;;;;44.33;21.63;;;14.60;99.90;;;;;;5084210;28;20023;-91
2022/05/16 11:04:34;;;;;;;38.70;19.00;;;14.70;99.90;;;;;;5094714;28;20035;-92
2022/05/16 11:07:27;;;;;;;48.03;22.00;;;14.80;99.90;;;;;;5096823;28;20039;-93
2022/05/16 11:10:16;;;;;;;40.70;20.95;;;14.80;99.90;;;;;;5074553;28;20029;-91
2022/05/16 11:13:01;;;;;;;48.85;22.42;;;14.80;99.90;;;;;;5077469;28;20020;-90
2022/05/16 11:16:18;;;;;;;40.80;19.98;;;14.90;99.90;;;;;;5075445;28;20029;-90
2022/05/16 11:19:03;;;;;;;46.50;21.98;;;14.90;99.90;;;;;;5028453;28;20104;-93
2022/05/16 11:21:52;;;;;;;40.90;22.17;;;14.90;99.90;;;;;;5053874;28;20028;-90
2022/05/16 11:24:41;;;;;;;45.72;22.98;;;14.90;99.90;;;;;;5051332;28;20045;-92
2022/05/16 11:27:37;;;;;;;38.22;20.90;;;14.90;99.90;;;;;;5060794;28;20097;-90
2022/05/16 11:30:15;;;;;;;46.95;21.05;;;15.00;99.90;;;;;;5031707;28;20017;-90
2022/05/16 11:33:07;;;;;;;41.42;20.95;;;15.10;99.90;;;;;;5026326;28;20092;-92
2022/05/16 11:35:45;;;;;;;41.55;21.73;;;15.20;99.90;;;;;;5035805;28;20037;-90
2022/05/16 11:38:32;;;;;;;39.08;19.63;;;15.30;99.90;;;;;;5061197;28;20040;-91
2022/05/16 11:41:13;;;;;;;39.85;21.17;;;15.50;99.90;;;;;;5037512;28;20117;-92
2022/05/16 11:43:48;;;;;;;40.45;20.50;;;15.80;99.90;;;;;;5037213;28;20142;-91
2022/05/16 11:46:23;;;;;;;37.13;19.08;;;16.10;99.90;;;;;;5035986;28;20033;-92
2022/05/16 11:49:35;;;;;;;33.22;18.52;;;16.40;99.90;;;;;;5037470;28;20060;-91
2022/05/16 11:52:08;;;;;;;28.02;16.25;;;16.90;99.90;;;;;;5048186;28;20119;-93
2022/05/16 11:54:37;;;;;;;28.90;15.48;;;17.30;99.90;;;;;;5079581;28;20104;-92
2022/05/16 12:03:18;;;;;;;25.63;14.80;;;17.90;99.90;;;;;;5115421;28;20043;-96
2022/05/16 12:05:47;;;;;;;;;;;18.00;99.90;;;;;;5112683;28;20076;-95
2022/05/16 12:08:36;;;;;;;23.53;14.33;;;18.10;99.90;;;;;;5106960;28;19947;-94
2022/05/16 12:11:02;;;;;;;27.40;14.85;;;18.10;99.90;;;;;;5098512;28;20030;-95
2022/05/16 12:13:33;;;;;;;26.10;15.32;;;18.10;99.90;;;;;;5104122;28;20044;-95
2022/05/16 12:16:42;;;;;;;26.98;15.48;;;17.90;99.90;;;;;;5106172;28;20071;-96
2022/05/16 12:19:24;;;;;;;23.48;13.90;;;17.80;99.90;;;;;;5105978;28;20212;-95
2022/05/16 12:22:04;;;;;;;21.88;14.27;;;17.70;99.90;;;;;;5106245;28;20028;-94
2022/05/16 12:24:54;;;;;;;25.92;14.70;;;17.50;99.90;;;;;;5113204;28;20020;-94
2022/05/16 12:27:47;;;;;;;21.30;14.80;;;17.40;99.90;;;;;;5098304;28;20068;-94
2022/05/16 12:30:54;;;;;;;22.70;16.83;;;17.30;99.90;;;;;;5098457;28;20040;-95
2022/05/16 12:50:23;;;;;;;24.48;13.35;;;17.90;99.90;;;;;;5575684;23;20323;-94
2022/05/16 12:53:30;;;;;;;22.65;13.90;;;18.00;99.90;;;;;;5002512;28;20093;-93
2022/05/16 12:56:07;;;;;;;18.10;11.60;;;18.00;99.90;;;;;;4996876;28;20034;-94
2022/05/16 12:58:45;;;;;;;18.00;9.80;;;18.00;99.90;;;;;;4993725;28;20033;-93
2022/05/16 13:01:41;;;;;;;18.95;11.50;;;18.00;99.90;;;;;;4993231;28;20487;-93
2022/05/16 13:04:33;;;;;;;19.20;11.50;;;18.10;99.90;;;;;;4994252;28;20034;-93
2022/05/16 13:07:24;;;;;;;17.60;10.43;;;18.10;99.90;;;;;;4998452;28;20037;-93
2022/05/16 13:10:29;;;;;;;17.38;11.57;;;18.20;99.90;;;;;;4993057;28;20033;-93
2022/05/16 13:13:28;;;;;;;19.08;12.75;;;18.40;99.90;;;;;;4992294;28;20026;-93
2022/05/16 13:16:16;;;;;;;19.85;12.20;;;18.60;99.90;;;;;;5000870;28;20038;-95
2022/05/16 13:18:54;;;;;;;22.65;13.10;;;18.80;99.90;;;;;;5005210;28;20031;-95
2022/05/16 13:24:55;;;;;;;19.08;10.48;;;19.50;99.90;;;;;;5005336;28;20419;-93
2022/05/16 13:30:14;;;;;;;8.38;6.30;;;20.10;99.90;;;;;;4975380;29;20044;-94
2022/05/16 13:32:47;;;;;;;13.13;5.32;;;20.60;99.90;;;;;;4965958;28;20031;-92
2022/05/16 13:35:39;;;;;;;10.13;5.45;;;21.00;99.90;;;;;;5095476;23;20042;-96
2022/05/16 13:38:07;;;;;;;8.48;5.05;;;21.40;99.90;;;;;;4991487;28;20035;-95
2022/05/16 13:40:41;;;;;;;6.78;4.45;;;21.60;99.90;;;;;;4995427;28;20027;-95
2022/05/16 13:43:20;;;;;;;9.68;5.50;;;21.80;99.90;;;;;;5011371;28;20034;-94
2022/05/16 13:45:46;;;;;;;7.10;4.28;;;22.10;99.90;;;;;;4999542;28;20030;-95
2022/05/16 13:48:17;;;;;;;6.63;3.40;;;22.30;99.90;;;;;;5003599;28;20047;-95
2022/05/16 13:50:45;;;;;;;6.95;3.80;;;22.60;99.90;;;;;;5010823;28;20439;-94
2022/05/16 13:53:19;;;;;;;7.13;4.25;;;22.70;99.90;;;;;;5006054;28;20047;-94
2022/05/16 13:55:50;;;;;;;7.72;4.53;;;22.50;99.90;;;;;;5013235;28;20027;-95
2022/05/16 13:58:17;;;;;;;7.82;4.20;;;22.20;99.90;;;;;;5017253;28;20026;-94
2022/05/16 14:01:04;;;;;;;6.28;3.20;;;22.20;99.90;;;;;;5018876;28;20094;-95
2022/05/16 14:03:42;;;;;;;7.90;3.50;;;22.10;99.90;;;;;;5017514;28;20050;-96
2022/05/16 14:09:33;;;;;;;4.53;2.03;;;22.20;99.90;;;;;;5015753;28;20050;-96
2022/05/16 14:11:59;;;;;;;8.27;1.90;;;22.20;98.20;;;;;;5016017;28;20123;-95
2022/05/16 14:14:28;;;;;;;7.32;2.25;;;22.40;96.80;;;;;;5012303;28;20026;-95
2022/05/16 14:17:02;;;;;;;2.50;1.65;;;22.60;96.30;;;;;;5000080;28;20027;-95
2022/05/16 14:19:46;;;;;;;4.60;1.70;;;22.70;94.10;;;;;;5018162;28;20034;-94
2022/05/16 14:24:52;;;;;;;4.95;1.58;;;23.00;91.90;;;;;;4990313;28;20057;-94
2022/05/16 14:32:42;;;;;;;5.38;1.90;;;23.00;90.30;;;;;;5389633;23;20259;-96
2022/05/16 14:35:17;;;;;;;5.40;2.10;;;22.70;90.40;;;;;;5018832;28;20026;-96
2022/05/16 14:37:43;;;;;;;3.33;1.80;;;22.50;90.60;;;;;;5015374;28;20102;-94
2022/05/16 14:40:14;;;;;;;4.75;1.90;;;22.40;90.20;;;;;;5287389;23;20058;-96
2022/05/16 14:42:44;;;;;;;8.80;2.00;;;22.50;90.00;;;;;;5015320;28;20026;-96
2022/05/16 14:46:42;;;;;;;5.57;2.40;;;22.60;90.00;;;;;;5006956;28;20026;-96
2022/05/16 14:48:16;;;;;;;3.78;2.00;;;22.90;89.90;;;;;;5013653;28;20049;-95
2022/05/16 14:50:45;;;;;;;5.65;2.05;;;23.20;89.20;;;;;;5017124;28;20045;-95
2022/05/16 14:53:19;;;;;;;6.38;2.03;;;23.30;88.80;;;;;;5012654;28;20014;-95
2022/05/16 15:12:12;;;;;;;3.85;2.70;;;23.00;84.80;;;;;;5974613;23;20325;-96
2022/05/16 15:14:44;;;;;;;4.47;2.83;;;23.10;83.70;;;;;;5017962;28;20026;-95
2022/05/16 15:17:13;;;;;;;7.85;3.38;;;23.40;83.60;;;;;;5099644;23;20134;-95
2022/05/16 15:19:40;;;;;;;6.47;3.13;;;23.50;82.10;;;;;;5011023;28;20014;-94
2022/05/16 15:22:15;;;;;;;4.45;2.85;;;23.70;81.70;;;;;;5010317;28;20046;-95
2022/05/16 15:24:50;;;;;;;6.75;2.28;;;24.00;81.60;;;;;;5016950;28;20011;-96
2022/05/16 15:36:57;;;;;;;5.25;1.88;;;23.90;76.30;;;;;;5018157;28;20045;-95
2022/05/16 15:58:50;;;;;;;5.35;2.05;;;22.70;79.10;;;;;;1301605;23;20379;-94
2022/05/16 16:01:20;;;;;;;5.25;2.13;;;22.60;79.90;;;;;;4973559;28;20058;-95
2022/05/16 16:08:57;;;;;;;3.88;2.10;;;22.60;81.40;;;;;;5641241;23;20098;-92
2022/05/16 16:19:26;;;;;;;4.80;2.42;;;22.10;82.00;;;;;;5474500;23;19976;-96
2022/05/16 16:21:54;;;;;;;6.22;2.15;;;22.00;82.80;;;;;;4976748;28;20051;-95